createdAt,value
2023-01-28T00:00:09.266Z,37.30
2023-01-28T00:05:32.218Z,25.40
2023-01-28T00:10:35.151Z,29.70
2023-01-28T00:15:38.137Z,30.60
2023-01-28T00:20:41.055Z,29.20
2023-01-28T00:25:43.979Z,24.80
2023-01-28T00:30:46.940Z,25.50
2023-01-28T00:36:00.027Z,28.30
2023-01-28T00:41:13.012Z,36.30
2023-01-28T00:46:16.986Z,43.40
2023-01-28T00:56:24.154Z,41.10
2023-01-28T01:01:28.005Z,41.60
2023-01-28T01:06:38.572Z,41.70
2023-01-28T01:11:41.549Z,39.80
2023-01-28T01:16:46.701Z,46.60
2023-01-28T01:21:50.894Z,46.10
2023-01-28T01:26:54.056Z,39.10
2023-01-28T01:31:57.127Z,46.70
2023-01-28T01:37:00.131Z,41.80
2023-01-28T01:42:03.448Z,37.80
2023-01-28T01:47:06.601Z,47.90
2023-01-28T01:52:15.969Z,41.20
2023-01-28T01:57:26.747Z,36.60
2023-01-28T02:02:29.802Z,41.70
2023-01-28T02:07:33.197Z,40.60
2023-01-28T02:12:58.794Z,45.80
2023-01-28T02:18:01.915Z,46.60
2023-01-28T02:23:42.223Z,42.40
2023-01-28T02:28:55.049Z,43.20
2023-01-28T02:34:23.381Z,45.10
2023-01-28T02:39:40.809Z,47.60
2023-01-28T02:44:43.797Z,45.50
2023-01-28T02:49:53.439Z,41.90
2023-01-28T02:55:25.771Z,43.10
2023-01-28T03:00:38.887Z,45.80
2023-01-28T03:06:07.126Z,44.10
2023-01-28T03:11:28.945Z,45.90
2023-01-28T03:16:53.215Z,38.70
2023-01-28T03:22:16.536Z,46.90
2023-01-28T03:27:51.773Z,44.20
2023-01-28T03:33:14.905Z,44.10
2023-01-28T03:38:23.056Z,38.30
2023-01-28T03:43:26.461Z,38.40
2023-01-28T03:48:29.791Z,44.90
2023-01-28T03:53:32.768Z,41.50
2023-01-28T03:59:09.057Z,38.60
2023-01-28T04:04:23.101Z,41.90
2023-01-28T04:09:26.175Z,35.90
2023-01-28T04:14:29.635Z,41.70
2023-01-28T04:19:37.441Z,41.30
2023-01-28T04:24:40.481Z,38.00
2023-01-28T04:29:43.426Z,39.30
2023-01-28T04:34:46.372Z,37.00
2023-01-28T04:39:49.286Z,36.20
2023-01-28T04:44:52.250Z,38.90
2023-01-28T04:49:55.226Z,40.30
2023-01-28T04:54:58.180Z,52.20
2023-01-28T05:00:01.129Z,43.40
2023-01-28T05:05:06.222Z,43.80
2023-01-28T05:10:10.041Z,46.90
2023-01-28T05:20:16.493Z,41.90
2023-01-28T05:25:20.493Z,46.60
2023-01-28T05:35:26.268Z,47.00
2023-01-28T05:40:29.213Z,40.20
2023-01-28T05:45:32.229Z,43.00
2023-01-28T05:50:35.252Z,44.70
2023-01-28T05:55:38.156Z,54.30
2023-01-28T06:00:41.090Z,65.30
2023-01-28T06:05:44.027Z,60.00
2023-01-28T06:10:47.175Z,61.80
2023-01-28T06:15:51.222Z,57.10
2023-01-28T06:20:54.212Z,60.60
2023-01-28T06:25:57.765Z,47.20
2023-01-28T06:31:00.757Z,61.20
2023-01-28T06:36:06.764Z,60.20
2023-01-28T06:41:09.785Z,59.10
2023-01-28T06:46:12.709Z,61.40
2023-01-28T06:51:15.949Z,58.40
2023-01-28T06:56:18.975Z,53.80
2023-01-28T07:01:22.024Z,45.40
2023-01-28T07:06:25.320Z,51.00
2023-01-28T07:11:28.273Z,52.70
2023-01-28T07:16:31.226Z,52.40
2023-01-28T07:21:34.441Z,53.20
2023-01-28T07:26:37.446Z,59.10
2023-01-28T07:31:40.489Z,64.40
2023-01-28T07:36:43.507Z,52.10
2023-01-28T07:41:47.523Z,43.30
2023-01-28T07:46:50.592Z,55.60
2023-01-28T07:51:53.511Z,48.60
2023-01-28T07:56:56.488Z,51.30
2023-01-28T08:01:59.494Z,46.60
2023-01-28T08:07:02.750Z,47.20
2023-01-28T08:12:06.192Z,45.50
2023-01-28T08:17:09.133Z,43.40
2023-01-28T08:22:12.048Z,46.40
2023-01-28T08:27:15.590Z,34.20
2023-01-28T08:32:18.535Z,37.60
2023-01-28T08:37:21.500Z,43.80
2023-01-28T08:42:24.434Z,30.20
2023-01-28T08:47:27.979Z,41.60
2023-01-28T08:52:30.904Z,36.00
2023-01-28T08:57:33.848Z,36.10
2023-01-28T09:02:38.098Z,37.50
2023-01-28T09:07:41.089Z,51.80
2023-01-28T09:12:44.558Z,42.90
2023-01-28T09:17:47.502Z,46.10
2023-01-28T09:22:50.508Z,40.10
2023-01-28T09:27:55.628Z,50.90
2023-01-28T09:32:58.865Z,36.60
2023-01-28T09:38:01.834Z,58.90
2023-01-28T09:43:42.452Z,108.00
2023-01-28T09:48:50.605Z,55.90
2023-01-28T09:53:57.826Z,64.50
2023-01-28T09:59:22.823Z,57.30
2023-01-28T10:04:34.607Z,54.90
2023-01-28T10:10:18.120Z,48.40
2023-01-28T10:15:54.630Z,57.80
2023-01-28T10:21:20.736Z,59.60
2023-01-28T10:26:30.967Z,60.30
2023-01-28T10:31:42.717Z,69.50
2023-01-28T10:36:46.465Z,69.20
2023-01-28T10:41:57.761Z,69.10
2023-01-28T10:47:10.455Z,68.60
2023-01-28T10:52:15.188Z,80.60
2023-01-28T10:57:19.309Z,63.30
2023-01-28T11:02:37.021Z,80.30
2023-01-28T11:07:40.137Z,78.10
2023-01-28T11:12:43.088Z,62.40
2023-01-28T11:17:52.311Z,65.10
2023-01-28T11:22:56.857Z,85.40
2023-01-28T11:28:02.248Z,63.20
2023-01-28T11:33:11.289Z,52.70
2023-01-28T11:38:21.582Z,49.60
2023-01-28T11:43:28.211Z,67.50
2023-01-28T11:48:39.933Z,78.80
2023-01-28T11:53:51.296Z,52.10
2023-01-28T11:59:02.208Z,69.30
2023-01-28T12:05:05.309Z,62.30
2023-01-28T12:10:33.530Z,49.50
2023-01-28T12:16:26.037Z,65.60
2023-01-28T12:22:08.519Z,54.60
2023-01-28T12:27:49.647Z,57.90
2023-01-28T12:33:09.751Z,69.10
2023-01-28T12:38:23.059Z,69.00
2023-01-28T12:43:51.331Z,70.00
2023-01-28T12:49:08.126Z,69.30
2023-01-28T12:54:37.470Z,56.70
2023-01-28T12:59:49.631Z,49.60
2023-01-28T13:05:16.047Z,57.50
2023-01-28T13:10:35.479Z,56.00
2023-01-28T13:15:43.825Z,66.30
2023-01-28T13:20:54.203Z,50.90
2023-01-28T13:26:40.986Z,69.40
2023-01-28T13:31:47.791Z,69.50
2023-01-28T13:36:51.001Z,66.00
2023-01-28T13:42:08.153Z,50.00
2023-01-28T13:47:11.140Z,64.30
2023-01-28T13:52:24.423Z,69.20
2023-01-28T13:58:31.728Z,64.40
2023-01-28T14:04:11.907Z,54.60
2023-01-28T14:09:51.385Z,52.40
2023-01-28T14:15:09.062Z,61.00
2023-01-28T14:20:25.319Z,76.70
2023-01-28T14:26:17.957Z,86.10
2023-01-28T14:31:37.912Z,86.10
2023-01-28T14:36:43.361Z,54.60
2023-01-28T14:41:50.789Z,82.40
2023-01-28T14:47:34.842Z,72.20
2023-01-28T14:53:18.071Z,64.60
2023-01-28T14:58:32.996Z,61.00
2023-01-28T15:03:36.117Z,66.30
2023-01-28T15:08:40.395Z,66.50
2023-01-28T15:13:55.707Z,78.10
2023-01-28T15:19:01.583Z,63.20
2023-01-28T15:24:05.353Z,70.60
2023-01-28T15:29:31.122Z,65.20
2023-01-28T15:34:34.088Z,51.80
2023-01-28T15:39:37.074Z,48.30
2023-01-28T15:44:45.754Z,45.80
2023-01-28T15:49:53.387Z,33.40
2023-01-28T15:54:56.374Z,19.70
2023-01-28T16:00:15.287Z,41.30
2023-01-28T16:05:34.741Z,39.70
2023-01-28T16:10:38.541Z,50.60
2023-01-28T16:15:51.590Z,49.80
2023-01-28T16:20:54.627Z,57.20
2023-01-28T16:26:07.129Z,55.20
2023-01-28T16:31:11.400Z,62.70
2023-01-28T16:36:18.108Z,45.10
2023-01-28T16:41:29.829Z,59.00
2023-01-28T16:46:33.601Z,57.90
2023-01-28T16:51:40.913Z,72.70
2023-01-28T16:56:46.216Z,50.10
2023-01-28T17:01:49.689Z,59.30
2023-01-28T17:06:53.311Z,56.40
2023-01-28T17:11:57.169Z,49.10
2023-01-28T17:17:00.180Z,52.50
2023-01-28T17:22:03.534Z,39.00
2023-01-28T17:27:07.675Z,33.30
2023-01-28T17:32:10.651Z,29.90
2023-01-28T17:37:13.667Z,42.30
2023-01-28T17:42:17.711Z,44.10
2023-01-28T17:47:21.093Z,36.10
2023-01-28T17:52:24.349Z,36.30
2023-01-28T17:57:28.603Z,32.90
2023-01-28T18:02:31.597Z,36.40
2023-01-28T18:07:34.604Z,26.50
2023-01-28T18:12:37.581Z,34.00
2023-01-28T18:17:40.618Z,47.40
2023-01-28T18:22:43.717Z,36.20
2023-01-28T18:27:46.825Z,43.50
2023-01-28T18:32:50.337Z,33.60
2023-01-28T18:37:53.291Z,28.10
2023-01-28T18:42:56.230Z,40.00
2023-01-28T18:47:59.175Z,39.80
2023-01-28T18:53:02.311Z,29.90
2023-01-28T18:58:05.257Z,29.40
2023-01-28T19:03:08.254Z,29.30
2023-01-28T19:08:11.216Z,24.60
2023-01-28T19:13:14.242Z,37.20
2023-01-28T19:18:17.978Z,41.40
2023-01-28T19:23:21.237Z,26.80
2023-01-28T19:28:24.377Z,23.90
2023-01-28T19:33:27.538Z,28.80
2023-01-28T19:38:30.549Z,36.20
2023-01-28T19:43:35.131Z,30.30
2023-01-28T19:48:38.117Z,29.00
2023-01-28T19:53:43.067Z,20.00
2023-01-28T19:58:46.910Z,18.70
2023-01-28T20:03:53.045Z,24.50
2023-01-28T20:09:00.735Z,21.40
2023-01-28T20:14:03.756Z,36.20
2023-01-28T20:19:16.398Z,19.30
2023-01-28T20:24:22.494Z,15.60
2023-01-28T20:29:25.480Z,16.80
2023-01-28T20:34:28.524Z,23.70
2023-01-28T20:39:31.467Z,17.80
2023-01-28T20:44:34.456Z,25.30
2023-01-28T20:49:37.435Z,23.90
2023-01-28T20:54:40.653Z,18.80
2023-01-28T20:59:43.865Z,15.20
2023-01-28T21:04:46.900Z,15.20
2023-01-28T21:09:49.885Z,17.30
2023-01-28T21:14:52.849Z,17.00
2023-01-28T21:19:55.795Z,14.60
2023-01-28T21:24:58.751Z,14.10
2023-01-28T21:30:02.064Z,22.70
2023-01-28T21:35:05.793Z,25.80
2023-01-28T21:40:09.745Z,17.00
2023-01-28T21:50:17.535Z,12.60
2023-01-28T21:55:20.798Z,11.70
2023-01-28T22:00:23.740Z,13.10
2023-01-28T22:05:26.693Z,13.10
2023-01-28T22:10:29.666Z,13.40
2023-01-28T22:15:32.730Z,14.30
2023-01-28T22:20:35.683Z,20.00
2023-01-28T22:25:38.661Z,15.70
2023-01-28T22:30:41.797Z,18.00
2023-01-28T22:35:44.915Z,12.30
2023-01-28T22:40:47.859Z,14.60
2023-01-28T22:45:59.750Z,15.50
2023-01-28T22:51:05.708Z,15.00
2023-01-28T22:56:08.799Z,15.20
2023-01-28T23:01:15.492Z,17.80
2023-01-28T23:06:21.991Z,23.30
2023-01-28T23:11:27.277Z,19.50
2023-01-28T23:16:49.513Z,17.00
2023-01-28T23:22:10.865Z,15.80
2023-01-28T23:27:13.824Z,19.50
2023-01-28T23:32:16.905Z,23.60
2023-01-28T23:37:19.910Z,22.80
2023-01-28T23:42:23.726Z,20.00
2023-01-28T23:47:26.677Z,23.60
2023-01-28T23:52:29.835Z,20.30
2023-01-28T23:57:34.435Z,21.40
